sensor_id;sensor_type;location;lat;lon;timestamp;pressure;altitude;pressure_sealevel;temperature;humidity
7524;BME280;3803;51.666;7.630;2023-04-01T00:00:08;98765.97;;;12.65;64.30
7524;BME280;3803;51.666;7.630;2023-04-01T00:00:32;98766.03;;;12.58;64.50
7524;BME280;3803;51.666;7.630;2023-04-01T00:00:54;98777.31;;;12.64;64.53
7524;BME280;3803;51.666;7.630;2023-04-01T00:01:16;98766.88;;;12.60;64.22
7524;BME280;3803;51.666;7.630;2023-04-01T00:01:37;98782.44;;;12.70;64.40
7524;BME280;3803;51.666;7.630;2023-04-01T00:01:57;98775.47;;;12.69;64.53
7524;BME280;3803;51.666;7.630;2023-04-01T00:02:18;98761.63;;;12.64;64.22
7524;BME280;3803;51.666;7.630;2023-04-01T00:02:38;98772.91;;;12.66;64.30
7524;BME280;3803;51.666;7.630;2023-04-01T00:02:59;98767.66;;;12.67;64.33
7524;BME280;3803;51.666;7.630;2023-04-01T00:03:22;98769.47;;;12.64;64.38
7524;BME280;3803;51.666;7.630;2023-04-01T00:03:43;98773.81;;;12.65;64.34
7524;BME280;3803;51.666;7.630;2023-04-01T00:04:03;98778.13;;;12.67;64.58
7524;BME280;3803;51.666;7.630;2023-04-01T00:04:24;98762.53;;;12.59;64.33
7524;BME280;3803;51.666;7.630;2023-04-01T00:04:45;98753.84;;;12.57;64.30
7524;BME280;3803;51.666;7.630;2023-04-01T00:05:06;98782.50;;;12.67;64.15
7524;BME280;3803;51.666;7.630;2023-04-01T00:05:27;98763.38;;;12.61;64.01
7524;BME280;3803;51.666;7.630;2023-04-01T00:05:48;98766.03;;;12.58;64.21
7524;BME280;3803;51.666;7.630;2023-04-01T00:06:12;98768.53;;;12.68;64.25
7524;BME280;3803;51.666;7.630;2023-04-01T00:06:33;98767.69;;;12.64;64.07
7524;BME280;3803;51.666;7.630;2023-04-01T00:06:54;98765.91;;;12.68;64.08
7524;BME280;3803;51.666;7.630;2023-04-01T00:07:14;98772.03;;;12.67;64.23
7524;BME280;3803;51.666;7.630;2023-04-01T00:07:35;98767.69;;;12.64;63.95
7524;BME280;3803;51.666;7.630;2023-04-01T00:07:56;98752.88;;;12.63;63.95
7524;BME280;3803;51.666;7.630;2023-04-01T00:08:17;98763.41;;;12.58;64.29
7524;BME280;3803;51.666;7.630;2023-04-01T00:08:38;98759.84;;;12.63;64.20
7524;BME280;3803;51.666;7.630;2023-04-01T00:08:58;98764.25;;;12.59;64.32
7524;BME280;3803;51.666;7.630;2023-04-01T00:09:19;98767.75;;;12.59;64.32
7524;BME280;3803;51.666;7.630;2023-04-01T00:09:40;98786.13;;;12.56;64.54
7524;BME280;3803;51.666;7.630;2023-04-01T00:10:00;98768.66;;;12.58;64.46
7524;BME280;3803;51.666;7.630;2023-04-01T00:10:21;98763.53;;;12.49;64.52
7524;BME280;3803;51.666;7.630;2023-04-01T00:10:51;98770.50;;;12.52;64.61
7524;BME280;3803;51.666;7.630;2023-04-01T00:11:12;98766.16;;;12.46;64.56
7524;BME280;3803;51.666;7.630;2023-04-01T00:11:32;98780.06;;;12.51;64.40
7524;BME280;3803;51.666;7.630;2023-04-01T00:11:53;98770.44;;;12.55;64.33
7524;BME280;3803;51.666;7.630;2023-04-01T00:12:14;98773.94;;;12.54;64.40
7524;BME280;3803;51.666;7.630;2023-04-01T00:12:35;98779.19;;;12.52;64.41
7524;BME280;3803;51.666;7.630;2023-04-01T00:12:55;98759.22;;;12.43;64.30
7524;BME280;3803;51.666;7.630;2023-04-01T00:13:16;98762.72;;;12.44;64.57
7524;BME280;3803;51.666;7.630;2023-04-01T00:13:37;98762.72;;;12.45;64.51
7524;BME280;3803;51.666;7.630;2023-04-01T00:13:58;98776.66;;;12.44;64.44
7524;BME280;3803;51.666;7.630;2023-04-01T00:14:18;98782.72;;;12.48;64.59
7524;BME280;3803;51.666;7.630;2023-04-01T00:14:39;98763.59;;;12.43;64.46
7524;BME280;3803;51.666;7.630;2023-04-01T00:15:00;98773.22;;;12.41;64.23
7524;BME280;3803;51.666;7.630;2023-04-01T00:15:21;98756.66;;;12.39;64.58
7524;BME280;3803;51.666;7.630;2023-04-01T00:15:42;98766.22;;;12.44;64.51
7524;BME280;3803;51.666;7.630;2023-04-01T00:16:03;98764.44;;;12.46;64.64
7524;BME280;3803;51.666;7.630;2023-04-01T00:16:26;98764.44;;;12.45;64.41
7524;BME280;3803;51.666;7.630;2023-04-01T00:16:46;98764.41;;;12.48;64.47
7524;BME280;3803;51.666;7.630;2023-04-01T00:17:07;98762.72;;;12.45;64.43
7524;BME280;3803;51.666;7.630;2023-04-01T00:17:28;98771.34;;;12.51;64.56
7524;BME280;3803;51.666;7.630;2023-04-01T00:17:48;98758.38;;;12.43;64.60
7524;BME280;3803;51.666;7.630;2023-04-01T00:18:10;98758.38;;;12.43;64.75
7524;BME280;3803;51.666;7.630;2023-04-01T00:18:49;98759.25;;;12.42;64.52
7524;BME280;3803;51.666;7.630;2023-04-01T00:19:10;98764.63;;;12.31;64.78
7524;BME280;3803;51.666;7.630;2023-04-01T00:19:31;98772.41;;;12.36;64.79
7524;BME280;3803;51.666;7.630;2023-04-01T00:19:55;98778.47;;;12.38;64.90
7524;BME280;3803;51.666;7.630;2023-04-01T00:20:16;98766.31;;;12.33;65.19
7524;BME280;3803;51.666;7.630;2023-04-01T00:20:37;98759.44;;;12.26;65.19
7524;BME280;3803;51.666;7.630;2023-04-01T00:20:57;98771.63;;;12.29;65.42
7524;BME280;3803;51.666;7.630;2023-04-01T00:21:19;98755.94;;;12.27;65.21
7524;BME280;3803;51.666;7.630;2023-04-01T00:21:40;98786.38;;;12.34;65.34
7524;BME280;3803;51.666;7.630;2023-04-01T00:22:01;98771.66;;;12.24;65.39
7524;BME280;3803;51.666;7.630;2023-04-01T00:22:23;98779.34;;;12.37;65.34
7524;BME280;3803;51.666;7.630;2023-04-01T00:22:44;98774.19;;;12.30;65.35
7524;BME280;3803;51.666;7.630;2023-04-01T00:23:04;98794.25;;;12.30;65.35
7524;BME280;3803;51.666;7.630;2023-04-01T00:23:25;98763.72;;;12.33;65.16
7524;BME280;3803;51.666;7.630;2023-04-01T00:23:46;98775.97;;;12.30;65.63
7524;BME280;3803;51.666;7.630;2023-04-01T00:24:07;98766.47;;;12.19;65.43
7524;BME280;3803;51.666;7.630;2023-04-01T00:24:27;98784.69;;;12.27;65.72
7524;BME280;3803;51.666;7.630;2023-04-01T00:24:48;98759.50;;;12.22;65.50
7524;BME280;3803;51.666;7.630;2023-04-01T00:25:09;98770.84;;;12.20;65.86
7524;BME280;3803;51.666;7.630;2023-04-01T00:25:30;98766.50;;;12.18;65.57
7524;BME280;3803;51.666;7.630;2023-04-01T00:25:51;98776.13;;;12.16;65.74
7524;BME280;3803;51.666;7.630;2023-04-01T00:26:12;98786.59;;;12.13;65.91
7524;BME280;3803;51.666;7.630;2023-04-01T00:26:35;98770.78;;;12.22;66.01
7524;BME280;3803;51.666;7.630;2023-04-01T00:26:56;98782.09;;;12.27;65.98
7524;BME280;3803;51.666;7.630;2023-04-01T00:27:17;98766.50;;;12.16;65.65
7524;BME280;3803;51.666;7.630;2023-04-01T00:27:38;98767.41;;;12.14;66.04
7524;BME280;3803;51.666;7.630;2023-04-01T00:27:59;98770.78;;;12.22;66.19
7524;BME280;3803;51.666;7.630;2023-04-01T00:28:19;98777.75;;;12.23;65.76
7524;BME280;3803;51.666;7.630;2023-04-01T00:29:48;98774.34;;;12.15;66.26
7524;BME280;3803;51.666;7.630;2023-04-01T00:30:09;98773.41;;;12.25;66.10
7524;BME280;3803;51.666;7.630;2023-04-01T00:30:30;98773.47;;;12.17;66.11
7524;BME280;3803;51.666;7.630;2023-04-01T00:30:51;98770.84;;;12.19;65.99
7524;BME280;3803;51.666;7.630;2023-04-01T00:31:12;98781.25;;;12.22;65.99
7524;BME280;3803;51.666;7.630;2023-04-01T00:31:33;98770.84;;;12.19;66.22
7524;BME280;3803;51.666;7.630;2023-04-01T00:31:53;98774.34;;;12.15;65.99
7524;BME280;3803;51.666;7.630;2023-04-01T00:32:15;98766.56;;;12.12;66.14
7524;BME280;3803;51.666;7.630;2023-04-01T00:32:35;98775.28;;;12.12;66.34
7524;BME280;3803;51.666;7.630;2023-04-01T00:32:57;98777.00;;;12.13;66.16
7524;BME280;3803;51.666;7.630;2023-04-01T00:33:17;98765.66;;;12.13;66.45
7524;BME280;3803;51.666;7.630;2023-04-01T00:33:39;98782.16;;;12.19;66.39
7524;BME280;3803;51.666;7.630;2023-04-01T00:34:01;98763.94;;;12.12;66.13
7524;BME280;3803;51.666;7.630;2023-04-01T00:34:21;98776.97;;;12.18;66.23
7524;BME280;3803;51.666;7.630;2023-04-01T00:34:42;98778.75;;;12.14;66.29
7524;BME280;3803;51.666;7.630;2023-04-01T00:35:05;98772.63;;;12.14;66.23
7524;BME280;3803;51.666;7.630;2023-04-01T00:35:25;98763.09;;;12.08;66.28
7524;BME280;3803;51.666;7.630;2023-04-01T00:35:46;98764.00;;;12.05;66.41
7524;BME280;3803;51.666;7.630;2023-04-01T00:36:11;98781.31;;;12.19;66.43
7524;BME280;3803;51.666;7.630;2023-04-01T00:36:32;98773.50;;;12.13;66.35
7524;BME280;3803;51.666;7.630;2023-04-01T00:36:53;98766.56;;;12.10;66.47
7524;BME280;3803;51.666;7.630;2023-04-01T00:37:14;98770.91;;;12.13;66.54
7524;BME280;3803;51.666;7.630;2023-04-01T00:37:36;98776.97;;;12.15;66.39
7524;BME280;3803;51.666;7.630;2023-04-01T00:37:58;98767.47;;;12.07;66.74
7524;BME280;3803;51.666;7.630;2023-04-01T00:38:19;98771.72;;;12.16;66.61
7524;BME280;3803;51.666;7.630;2023-04-01T00:38:40;98780.41;;;12.22;66.23
7524;BME280;3803;51.666;7.630;2023-04-01T00:39:02;98768.28;;;12.13;66.64
7524;BME280;3803;51.666;7.630;2023-04-01T00:39:22;98782.19;;;12.18;66.78
7524;BME280;3803;51.666;7.630;2023-04-01T00:39:43;98763.94;;;12.12;66.67
7524;BME280;3803;51.666;7.630;2023-04-01T00:40:06;98778.75;;;12.14;66.78
7524;BME280;3803;51.666;7.630;2023-04-01T00:40:33;98786.56;;;12.16;66.48
7524;BME280;3803;51.666;7.630;2023-04-01T00:40:57;98786.56;;;12.16;66.59
7524;BME280;3803;51.666;7.630;2023-04-01T00:41:19;98790.00;;;12.19;66.69
7524;BME280;3803;51.666;7.630;2023-04-01T00:41:41;98766.56;;;12.12;66.61
7524;BME280;3803;51.666;7.630;2023-04-01T00:42:03;98760.50;;;12.06;66.73
7524;BME280;3803;51.666;7.630;2023-04-01T00:42:25;98764.88;;;12.06;66.46
7524;BME280;3803;51.666;7.630;2023-04-01T00:42:46;98769.22;;;12.05;66.85
7524;BME280;3803;51.666;7.630;2023-04-01T00:43:24;98768.28;;;12.13;66.64
7524;BME280;3803;51.666;7.630;2023-04-01T00:43:50;98768.28;;;12.11;66.68
7524;BME280;3803;51.666;7.630;2023-04-01T00:44:16;98768.34;;;12.06;66.70
7524;BME280;3803;51.666;7.630;2023-04-01T00:44:38;98777.03;;;12.10;66.82
7524;BME280;3803;51.666;7.630;2023-04-01T00:45:39;98767.47;;;12.07;66.93
7524;BME280;3803;51.666;7.630;2023-04-01T00:46:00;98772.63;;;12.14;66.72
7524;BME280;3803;51.666;7.630;2023-04-01T00:46:21;98770.06;;;12.09;66.74
7524;BME280;3803;51.666;7.630;2023-04-01T00:46:42;98781.34;;;12.13;66.56
7524;BME280;3803;51.666;7.630;2023-04-01T00:47:03;98784.81;;;12.15;66.55
7524;BME280;3803;51.666;7.630;2023-04-01T00:47:24;98771.78;;;12.12;66.87
7524;BME280;3803;51.666;7.630;2023-04-01T00:47:46;98787.41;;;12.18;66.55
7524;BME280;3803;51.666;7.630;2023-04-01T00:48:11;98760.50;;;12.06;66.55
7524;BME280;3803;51.666;7.630;2023-04-01T00:48:36;98775.28;;;12.11;66.47
7524;BME280;3803;51.666;7.630;2023-04-01T00:48:58;98774.47;;;12.05;67.17
7524;BME280;3803;51.666;7.630;2023-04-01T00:49:22;98783.19;;;12.06;67.14
7524;BME280;3803;51.666;7.630;2023-04-01T00:49:46;98764.94;;;12.00;67.10
7524;BME280;3803;51.666;7.630;2023-04-01T00:50:09;98773.66;;;12.00;66.98
7524;BME280;3803;51.666;7.630;2023-04-01T00:50:30;98781.41;;;12.10;67.02
7524;BME280;3803;51.666;7.630;2023-04-01T00:50:57;98777.13;;;12.02;67.30
7524;BME280;3803;51.666;7.630;2023-04-01T00:51:22;98771.91;;;11.99;67.31
7524;BME280;3803;51.666;7.630;2023-04-01T00:51:45;98766.66;;;12.04;66.97
7524;BME280;3803;51.666;7.630;2023-04-01T00:52:11;98780.50;;;12.11;66.85
7524;BME280;3803;51.666;7.630;2023-04-01T00:52:33;98771.00;;;12.03;67.26
7524;BME280;3803;51.666;7.630;2023-04-01T00:52:54;98761.44;;;11.99;67.26
7524;BME280;3803;51.666;7.630;2023-04-01T00:53:17;98757.09;;;12.01;67.17
7524;BME280;3803;51.666;7.630;2023-04-01T00:53:45;98776.13;;;12.14;67.22
7524;BME280;3803;51.666;7.630;2023-04-01T00:54:08;98765.72;;;12.06;67.07
7524;BME280;3803;51.666;7.630;2023-04-01T00:54:31;98767.53;;;12.01;66.96
7524;BME280;3803;51.666;7.630;2023-04-01T00:54:56;98782.25;;;12.10;66.91
7524;BME280;3803;51.666;7.630;2023-04-01T00:55:19;98770.13;;;12.06;67.03
7524;BME280;3803;51.666;7.630;2023-04-01T00:55:45;98779.69;;;12.09;67.11
7524;BME280;3803;51.666;7.630;2023-04-01T00:56:13;98780.53;;;12.07;66.86
7524;BME280;3803;51.666;7.630;2023-04-01T00:56:37;98760.59;;;11.97;67.11
7524;BME280;3803;51.666;7.630;2023-04-01T00:57:09;98774.44;;;12.09;67.30
7524;BME280;3803;51.666;7.630;2023-04-01T00:57:35;98772.78;;;12.01;66.94
7524;BME280;3803;51.666;7.630;2023-04-01T00:57:58;98778.81;;;12.06;67.07
7524;BME280;3803;51.666;7.630;2023-04-01T00:58:21;98763.22;;;11.96;67.25
7524;BME280;3803;51.666;7.630;2023-04-01T00:58:48;98777.09;;;12.04;67.27
7524;BME280;3803;51.666;7.630;2023-04-01T00:59:14;98770.16;;;12.01;67.33
7524;BME280;3803;51.666;7.630;2023-04-01T00:59:46;98776.28;;;11.97;67.20
7524;BME280;3803;51.666;7.630;2023-04-01T01:00:10;98776.19;;;12.06;67.33
7524;BME280;3803;51.666;7.630;2023-04-01T01:00:34;98760.59;;;11.97;67.15
7524;BME280;3803;51.666;7.630;2023-04-01T01:00:55;98766.72;;;11.98;67.22
7524;BME280;3803;51.666;7.630;2023-04-01T01:01:16;98761.50;;;11.96;67.51
7524;BME280;3803;51.666;7.630;2023-04-01T01:01:37;98772.78;;;12.01;67.32
7524;BME280;3803;51.666;7.630;2023-04-01T01:02:00;98761.47;;;11.98;67.28
7524;BME280;3803;51.666;7.630;2023-04-01T01:02:21;98766.66;;;12.01;67.41
7524;BME280;3803;51.666;7.630;2023-04-01T01:02:44;98773.63;;;12.03;67.29
7524;BME280;3803;51.666;7.630;2023-04-01T01:03:05;98777.06;;;12.05;67.29
7524;BME280;3803;51.666;7.630;2023-04-01T01:03:27;98778.84;;;12.03;67.62
7524;BME280;3803;51.666;7.630;2023-04-01T01:03:48;98759.75;;;11.93;67.30
7524;BME280;3803;51.666;7.630;2023-04-01T01:04:28;98763.28;;;11.91;67.45
7524;BME280;3803;51.666;7.630;2023-04-01T01:04:49;98759.75;;;11.93;67.57
7524;BME280;3803;51.666;7.630;2023-04-01T01:05:14;98766.72;;;11.98;67.48
7524;BME280;3803;51.666;7.630;2023-04-01T01:06:10;98782.25;;;12.10;67.39
7524;BME280;3803;51.666;7.630;2023-04-01T01:06:47;98779.69;;;12.05;67.37
7524;BME280;3803;51.666;7.630;2023-04-01T01:07:52;98778.84;;;12.02;67.67
7524;BME280;3803;51.666;7.630;2023-04-01T01:08:46;98765.81;;;11.97;67.61
7524;BME280;3803;51.666;7.630;2023-04-01T01:09:31;98767.47;;;12.07;67.59
7524;BME280;3803;51.666;7.630;2023-04-01T01:10:01;98777.97;;;12.04;67.77
7524;BME280;3803;51.666;7.630;2023-04-01T01:10:30;98771.09;;;11.94;67.45
7524;BME280;3803;51.666;7.630;2023-04-01T01:10:52;98751.03;;;11.95;67.57
7524;BME280;3803;51.666;7.630;2023-04-01T01:11:14;98755.38;;;12.00;67.49
7524;BME280;3803;51.666;7.630;2023-04-01T01:11:54;98759.72;;;12.00;67.66
7524;BME280;3803;51.666;7.630;2023-04-01T01:12:24;98770.16;;;12.01;67.99
7524;BME280;3803;51.666;7.630;2023-04-01T01:13:11;98766.66;;;12.01;67.86
7524;BME280;3803;51.666;7.630;2023-04-01T01:13:48;98766.72;;;11.96;67.80
7524;BME280;3803;51.666;7.630;2023-04-01T01:14:58;98764.97;;;11.97;67.91
7524;BME280;3803;51.666;7.630;2023-04-01T01:16:22;98754.53;;;11.93;67.99
7524;BME280;3803;51.666;7.630;2023-04-01T01:16:25;98771.03;;;12.00;67.96
7524;BME280;3803;51.666;7.630;2023-04-01T01:16:52;98770.22;;;11.97;67.71
7524;BME280;3803;51.666;7.630;2023-04-01T01:17:26;98765.81;;;12.00;68.03
7524;BME280;3803;51.666;7.630;2023-04-01T01:17:56;98767.50;;;12.04;68.00
7524;BME280;3803;51.666;7.630;2023-04-01T01:19:17;98762.38;;;11.95;67.88
7524;BME280;3803;51.666;7.630;2023-04-01T01:22:29;98768.44;;;12.00;68.12
7524;BME280;3803;51.666;7.630;2023-04-01T01:24:35;98768.41;;;12.02;68.13
7524;BME280;3803;51.666;7.630;2023-04-01T01:26:04;98759.66;;;12.04;67.97
7524;BME280;3803;51.666;7.630;2023-04-01T01:26:54;98757.09;;;12.01;68.19
7524;BME280;3803;51.666;7.630;2023-04-01T01:27:20;98758.88;;;11.96;68.16
7524;BME280;3803;51.666;7.630;2023-04-01T01:27:55;98754.53;;;11.97;68.09
7524;BME280;3803;51.666;7.630;2023-04-01T01:28:32;98768.44;;;11.99;68.14
7524;BME280;3803;51.666;7.630;2023-04-01T01:29:13;98745.88;;;11.90;68.36
7524;BME280;3803;51.666;7.630;2023-04-01T01:30:39;98743.25;;;11.90;68.18
7524;BME280;3803;51.666;7.630;2023-04-01T01:31:12;98752.75;;;11.97;68.38
7524;BME280;3803;51.666;7.630;2023-04-01T01:33:32;98747.53;;;11.96;68.16
7524;BME280;3803;51.666;7.630;2023-04-01T01:34:55;98750.16;;;11.97;68.49
7524;BME280;3803;51.666;7.630;2023-04-01T01:35:30;98748.47;;;11.93;68.36
7524;BME280;3803;51.666;7.630;2023-04-01T01:35:54;98738.03;;;11.90;68.26
7524;BME280;3803;51.666;7.630;2023-04-01T01:36:17;98745.84;;;11.91;68.15
7524;BME280;3803;51.666;7.630;2023-04-01T01:36:40;98754.47;;;12.01;68.10
7524;BME280;3803;51.666;7.630;2023-04-01T01:37:08;98748.38;;;11.99;68.05
7524;BME280;3803;51.666;7.630;2023-04-01T01:37:31;98738.03;;;11.90;67.85
7524;BME280;3803;51.666;7.630;2023-04-01T01:38:05;98744.97;;;11.91;68.03
7524;BME280;3803;51.666;7.630;2023-04-01T01:38:31;98745.88;;;11.90;68.16
7524;BME280;3803;51.666;7.630;2023-04-01T01:38:55;98755.28;;;12.06;68.13
7524;BME280;3803;51.666;7.630;2023-04-01T01:39:18;98738.00;;;11.93;67.92
7524;BME280;3803;51.666;7.630;2023-04-01T01:39:43;98755.38;;;11.97;67.95
7524;BME280;3803;51.666;7.630;2023-04-01T01:40:07;98751.09;;;11.90;68.25
7524;BME280;3803;51.666;7.630;2023-04-01T01:40:33;98762.38;;;11.95;68.50
7524;BME280;3803;51.666;7.630;2023-04-01T01:40:56;98738.94;;;11.86;68.30
7524;BME280;3803;51.666;7.630;2023-04-01T01:41:19;98764.09;;;11.96;68.65
7524;BME280;3803;51.666;7.630;2023-04-01T01:41:43;98739.78;;;11.88;68.25
7524;BME280;3803;51.666;7.630;2023-04-01T01:42:10;98751.97;;;11.89;68.30
7524;BME280;3803;51.666;7.630;2023-04-01T01:42:34;98756.22;;;11.99;68.36
7524;BME280;3803;51.666;7.630;2023-04-01T01:42:59;98740.63;;;11.90;68.04
7524;BME280;3803;51.666;7.630;2023-04-01T01:43:24;98735.44;;;11.87;68.37
7524;BME280;3803;51.666;7.630;2023-04-01T01:43:48;98751.94;;;11.92;68.36
7524;BME280;3803;51.666;7.630;2023-04-01T01:44:12;98745.06;;;11.85;68.28
7524;BME280;3803;51.666;7.630;2023-04-01T01:44:36;98762.47;;;11.86;68.18
7524;BME280;3803;51.666;7.630;2023-04-01T01:44:58;98742.50;;;11.78;68.53
7524;BME280;3803;51.666;7.630;2023-04-01T01:45:22;98739.84;;;11.85;68.12
7524;BME280;3803;51.666;7.630;2023-04-01T01:45:49;98741.56;;;11.83;68.28
7524;BME280;3803;51.666;7.630;2023-04-01T01:46:15;98758.91;;;11.93;68.38
7524;BME280;3803;51.666;7.630;2023-04-01T01:46:38;98742.41;;;11.86;68.46
7524;BME280;3803;51.666;7.630;2023-04-01T01:47:01;98748.47;;;11.93;68.43
7524;BME280;3803;51.666;7.630;2023-04-01T01:47:22;98740.63;;;11.91;68.42
7524;BME280;3803;51.666;7.630;2023-04-01T01:47:45;98750.19;;;11.91;68.29
7524;BME280;3803;51.666;7.630;2023-04-01T01:48:09;98748.47;;;11.90;68.32
7524;BME280;3803;51.666;7.630;2023-04-01T01:48:33;98739.84;;;11.85;68.16
7524;BME280;3803;51.666;7.630;2023-04-01T01:48:55;98745.84;;;11.93;68.08
7524;BME280;3803;51.666;7.630;2023-04-01T01:49:17;98750.25;;;11.89;68.28
7524;BME280;3803;51.666;7.630;2023-04-01T01:49:40;98746.75;;;11.87;68.19
7524;BME280;3803;51.666;7.630;2023-04-01T01:50:02;98737.22;;;11.83;68.22
7524;BME280;3803;51.666;7.630;2023-04-01T01:50:25;98734.59;;;11.85;68.20
7524;BME280;3803;51.666;7.630;2023-04-01T01:50:48;98745.94;;;11.82;68.43
7524;BME280;3803;51.666;7.630;2023-04-01T01:51:10;98751.97;;;11.89;68.27
7524;BME280;3803;51.666;7.630;2023-04-01T01:51:31;98733.78;;;11.81;68.45
7524;BME280;3803;51.666;7.630;2023-04-01T01:51:52;98739.84;;;11.83;68.63
7524;BME280;3803;51.666;7.630;2023-04-01T01:52:13;98742.47;;;11.83;68.66
7524;BME280;3803;51.666;7.630;2023-04-01T01:52:33;98736.34;;;11.83;68.45
7524;BME280;3803;51.666;7.630;2023-04-01T01:53:08;98729.38;;;11.85;68.26
7524;BME280;3803;51.666;7.630;2023-04-01T01:53:30;98752.78;;;11.96;68.13
7524;BME280;3803;51.666;7.630;2023-04-01T01:53:50;98745.00;;;11.89;68.21
7524;BME280;3803;51.666;7.630;2023-04-01T01:54:14;98757.16;;;11.92;68.29
7524;BME280;3803;51.666;7.630;2023-04-01T01:54:35;98742.34;;;11.92;68.45
7524;BME280;3803;51.666;7.630;2023-04-01T01:54:57;98747.59;;;11.92;68.32
7524;BME280;3803;51.666;7.630;2023-04-01T01:55:48;98764.16;;;11.93;68.20
7524;BME280;3803;51.666;7.630;2023-04-01T01:56:11;98750.19;;;11.92;68.18
7524;BME280;3803;51.666;7.630;2023-04-01T01:56:34;98756.31;;;11.91;68.09
7524;BME280;3803;51.666;7.630;2023-04-01T01:57:07;98741.56;;;11.83;68.16
7524;BME280;3803;51.666;7.630;2023-04-01T01:57:44;98742.47;;;11.83;68.49
7524;BME280;3803;51.666;7.630;2023-04-01T01:58:43;98762.44;;;11.89;68.51
7524;BME280;3803;51.666;7.630;2023-04-01T01:59:08;98740.75;;;11.79;68.57
7524;BME280;3803;51.666;7.630;2023-04-01T01:59:33;98742.47;;;11.82;68.28
7524;BME280;3803;51.666;7.630;2023-04-01T02:00:03;98746.75;;;11.87;68.26
7524;BME280;3803;51.666;7.630;2023-04-01T02:00:33;98752.81;;;11.91;68.32
7524;BME280;3803;51.666;7.630;2023-04-01T02:01:21;98751.03;;;11.95;68.25
7524;BME280;3803;51.666;7.630;2023-04-01T02:02:04;98749.25;;;11.98;67.83
7524;BME280;3803;51.666;7.630;2023-04-01T02:02:47;98754.38;;;12.12;67.77
7524;BME280;3803;51.666;7.630;2023-04-01T02:03:09;98742.13;;;12.14;67.67
7524;BME280;3803;51.666;7.630;2023-04-01T02:03:34;98744.75;;;12.14;67.58
7524;BME280;3803;51.666;7.630;2023-04-01T02:03:57;98741.31;;;12.07;67.26
7524;BME280;3803;51.666;7.630;2023-04-01T02:04:19;98739.56;;;12.10;67.47
7524;BME280;3803;51.666;7.630;2023-04-01T02:04:42;98741.31;;;12.11;67.52
7524;BME280;3803;51.666;7.630;2023-04-01T02:05:05;98761.22;;;12.23;67.44
7524;BME280;3803;51.666;7.630;2023-04-01T02:05:28;98736.91;;;12.14;67.20
7524;BME280;3803;51.666;7.630;2023-04-01T02:05:59;98739.50;;;12.16;67.48
7524;BME280;3803;51.666;7.630;2023-04-01T02:06:22;98755.97;;;12.24;67.09
7524;BME280;3803;51.666;7.630;2023-04-01T02:06:53;98742.91;;;12.21;67.22
7524;BME280;3803;51.666;7.630;2023-04-01T02:07:25;98736.91;;;12.16;67.21
7524;BME280;3803;51.666;7.630;2023-04-01T02:07:57;98748.16;;;12.21;67.15
7524;BME280;3803;51.666;7.630;2023-04-01T02:08:26;98748.16;;;12.23;67.30
7524;BME280;3803;51.666;7.630;2023-04-01T02:08:59;98739.56;;;12.10;67.49
7524;BME280;3803;51.666;7.630;2023-04-01T02:09:21;98754.22;;;12.23;67.41
7524;BME280;3803;51.666;7.630;2023-04-01T02:09:42;98756.06;;;12.16;67.31
7524;BME280;3803;51.666;7.630;2023-04-01T02:10:05;98737.81;;;12.10;67.52
7524;BME280;3803;51.666;7.630;2023-04-01T02:10:28;98741.28;;;12.12;67.26
7524;BME280;3803;51.666;7.630;2023-04-01T02:10:57;98735.19;;;12.13;67.53
7524;BME280;3803;51.666;7.630;2023-04-01T02:11:28;98755.09;;;12.22;67.19
7524;BME280;3803;51.666;7.630;2023-04-01T02:11:53;98748.16;;;12.21;67.40
7524;BME280;3803;51.666;7.630;2023-04-01T02:12:17;98731.63;;;12.17;67.37
7524;BME280;3803;51.666;7.630;2023-04-01T02:12:41;98739.47;;;12.17;67.18
7524;BME280;3803;51.666;7.630;2023-04-01T02:13:09;98743.75;;;12.23;67.25
7524;BME280;3803;51.666;7.630;2023-04-01T02:13:44;98752.53;;;12.19;67.25
7524;BME280;3803;51.666;7.630;2023-04-01T02:14:12;98734.28;;;12.16;67.09
7524;BME280;3803;51.666;7.630;2023-04-01T02:15:11;98742.97;;;12.18;67.18
7524;BME280;3803;51.666;7.630;2023-04-01T02:15:37;98747.34;;;12.16;67.30
7524;BME280;3803;51.666;7.630;2023-04-01T02:16:06;98748.16;;;12.21;67.09
7524;BME280;3803;51.666;7.630;2023-04-01T02:16:36;98763.78;;;12.29;67.18
7524;BME280;3803;51.666;7.630;2023-04-01T02:17:07;98749.88;;;12.22;67.21
7524;BME280;3803;51.666;7.630;2023-04-01T02:17:30;98745.63;;;12.13;67.37
7524;BME280;3803;51.666;7.630;2023-04-01T02:17:51;98742.09;;;12.17;67.03
7524;BME280;3803;51.666;7.630;2023-04-01T02:18:14;98736.91;;;12.14;67.09
7524;BME280;3803;51.666;7.630;2023-04-01T02:18:36;98746.41;;;12.20;67.19
7524;BME280;3803;51.666;7.630;2023-04-01T02:19:00;98749.03;;;12.20;67.30
7524;BME280;3803;51.666;7.630;2023-04-01T02:19:31;98767.41;;;12.14;67.07
7524;BME280;3803;51.666;7.630;2023-04-01T02:19:58;98762.06;;;12.26;67.23
7524;BME280;3803;51.666;7.630;2023-04-01T02:20:22;98750.78;;;12.19;67.04
7524;BME280;3803;51.666;7.630;2023-04-01T02:20:44;98754.28;;;12.20;67.13
7524;BME280;3803;51.666;7.630;2023-04-01T02:21:07;98739.47;;;12.19;67.04
7524;BME280;3803;51.666;7.630;2023-04-01T02:21:31;98742.97;;;12.15;66.96
7524;BME280;3803;51.666;7.630;2023-04-01T02:21:55;98737.81;;;12.12;67.31
7524;BME280;3803;51.666;7.630;2023-04-01T02:22:23;98748.22;;;12.15;67.25
7524;BME280;3803;51.666;7.630;2023-04-01T02:22:50;98743.09;;;12.05;67.50
7524;BME280;3803;51.666;7.630;2023-04-01T02:23:12;98762.22;;;12.12;67.54
7524;BME280;3803;51.666;7.630;2023-04-01T02:23:35;98741.31;;;12.07;67.33
7524;BME280;3803;51.666;7.630;2023-04-01T02:23:58;98748.31;;;12.05;67.28
7524;BME280;3803;51.666;7.630;2023-04-01T02:24:20;98742.19;;;12.10;67.29
7524;BME280;3803;51.666;7.630;2023-04-01T02:24:44;98758.72;;;12.12;67.28
7524;BME280;3803;51.666;7.630;2023-04-01T02:25:09;98752.66;;;12.08;67.46
7524;BME280;3803;51.666;7.630;2023-04-01T02:25:35;98758.75;;;12.09;67.46
7524;BME280;3803;51.666;7.630;2023-04-01T02:25:57;98757.94;;;12.05;67.50
7524;BME280;3803;51.666;7.630;2023-04-01T02:26:18;98754.38;;;12.11;67.61
7524;BME280;3803;51.666;7.630;2023-04-01T02:26:40;98757.81;;;12.14;67.33
7524;BME280;3803;51.666;7.630;2023-04-01T02:27:01;98756.16;;;12.09;67.46
7524;BME280;3803;51.666;7.630;2023-04-01T02:27:24;98743.91;;;12.11;67.42
7524;BME280;3803;51.666;7.630;2023-04-01T02:27:46;98754.38;;;12.12;67.14
7524;BME280;3803;51.666;7.630;2023-04-01T02:28:07;98755.22;;;12.13;67.34
7524;BME280;3803;51.666;7.630;2023-04-01T02:28:29;98766.50;;;12.16;67.31
7524;BME280;3803;51.666;7.630;2023-04-01T02:28:53;98750.03;;;12.06;67.52